sensor_id;sensor_type;location;lat;lon;timestamp;temperature;humidity
39865;DHT22;25538;48.392;9.976;2023-01-31T00:01:18;2.20;99.90
39865;DHT22;25538;48.392;9.976;2023-01-31T00:03:45;2.10;99.90
39865;DHT22;25538;48.392;9.976;2023-01-31T00:06:23;2.10;99.90
39865;DHT22;25538;48.392;9.976;2023-01-31T00:08:50;2.10;99.90
39865;DHT22;25538;48.392;9.976;2023-01-31T00:11:19;2.10;99.90
39865;DHT22;25538;48.392;9.976;2023-01-31T00:13:45;2.10;99.90
39865;DHT22;25538;48.392;9.976;2023-01-31T00:16:12;2.10;99.90
39865;DHT22;25538;48.392;9.976;2023-01-31T00:18:39;2.00;99.90
39865;DHT22;25538;48.392;9.976;2023-01-31T00:21:10;2.00;99.90
39865;DHT22;25538;48.392;9.976;2023-01-31T00:23:37;1.90;99.90
39865;DHT22;25538;48.392;9.976;2023-01-31T00:28:54;1.90;99.90
39865;DHT22;25538;48.392;9.976;2023-01-31T00:31:22;1.90;99.90
39865;DHT22;25538;48.392;9.976;2023-01-31T00:33:49;1.80;99.90
39865;DHT22;25538;48.392;9.976;2023-01-31T00:36:21;1.70;99.90
39865;DHT22;25538;48.392;9.976;2023-01-31T00:38:49;1.70;99.90
39865;DHT22;25538;48.392;9.976;2023-01-31T00:41:15;1.70;99.90
39865;DHT22;25538;48.392;9.976;2023-01-31T00:43:41;1.70;99.90
39865;DHT22;25538;48.392;9.976;2023-01-31T00:46:07;1.70;99.90
39865;DHT22;25538;48.392;9.976;2023-01-31T00:48:33;1.60;99.90
39865;DHT22;25538;48.392;9.976;2023-01-31T00:50:59;1.60;99.90
39865;DHT22;25538;48.392;9.976;2023-01-31T00:53:24;1.50;99.90
39865;DHT22;25538;48.392;9.976;2023-01-31T00:55:51;1.50;99.90
39865;DHT22;25538;48.392;9.976;2023-01-31T00:58:18;1.50;99.90
39865;DHT22;25538;48.392;9.976;2023-01-31T01:00:44;1.50;99.90
39865;DHT22;25538;48.392;9.976;2023-01-31T01:03:10;1.40;99.90
39865;DHT22;25538;48.392;9.976;2023-01-31T01:05:37;1.30;99.90
39865;DHT22;25538;48.392;9.976;2023-01-31T01:08:03;1.20;99.90
39865;DHT22;25538;48.392;9.976;2023-01-31T01:10:29;1.20;99.90
39865;DHT22;25538;48.392;9.976;2023-01-31T01:12:55;1.20;99.90
39865;DHT22;25538;48.392;9.976;2023-01-31T01:15:20;1.20;99.90
39865;DHT22;25538;48.392;9.976;2023-01-31T01:17:46;1.20;99.90
39865;DHT22;25538;48.392;9.976;2023-01-31T01:20:12;1.30;99.90
39865;DHT22;25538;48.392;9.976;2023-01-31T01:22:38;1.30;99.90
39865;DHT22;25538;48.392;9.976;2023-01-31T01:25:04;1.30;99.90
39865;DHT22;25538;48.392;9.976;2023-01-31T01:27:31;1.20;99.90
39865;DHT22;25538;48.392;9.976;2023-01-31T01:29:57;1.20;99.90
39865;DHT22;25538;48.392;9.976;2023-01-31T01:32:23;1.10;99.90
39865;DHT22;25538;48.392;9.976;2023-01-31T01:34:49;1.00;99.90
39865;DHT22;25538;48.392;9.976;2023-01-31T01:37:15;1.00;99.90
39865;DHT22;25538;48.392;9.976;2023-01-31T01:39:48;1.00;99.90
39865;DHT22;25538;48.392;9.976;2023-01-31T01:42:23;0.90;99.90
39865;DHT22;25538;48.392;9.976;2023-01-31T01:44:50;0.90;99.90
39865;DHT22;25538;48.392;9.976;2023-01-31T01:52:50;0.80;99.90
39865;DHT22;25538;48.392;9.976;2023-01-31T01:55:34;0.70;99.90
39865;DHT22;25538;48.392;9.976;2023-01-31T01:58:07;0.70;99.90
39865;DHT22;25538;48.392;9.976;2023-01-31T02:00:35;0.70;99.90
39865;DHT22;25538;48.392;9.976;2023-01-31T02:03:05;0.70;99.90
39865;DHT22;25538;48.392;9.976;2023-01-31T02:05:38;0.60;99.90
39865;DHT22;25538;48.392;9.976;2023-01-31T02:08:05;0.60;99.90
39865;DHT22;25538;48.392;9.976;2023-01-31T02:13:06;0.40;99.90
39865;DHT22;25538;48.392;9.976;2023-01-31T02:15:33;0.40;99.90
39865;DHT22;25538;48.392;9.976;2023-01-31T02:18:00;0.40;99.90
39865;DHT22;25538;48.392;9.976;2023-01-31T02:26:28;0.30;99.90
39865;DHT22;25538;48.392;9.976;2023-01-31T02:35:05;0.30;99.90
39865;DHT22;25538;48.392;9.976;2023-01-31T02:37:59;0.40;99.90
39865;DHT22;25538;48.392;9.976;2023-01-31T02:40:33;0.40;99.90
39865;DHT22;25538;48.392;9.976;2023-01-31T02:43:07;0.40;99.90
39865;DHT22;25538;48.392;9.976;2023-01-31T02:45:59;0.40;99.90
39865;DHT22;25538;48.392;9.976;2023-01-31T02:53:44;0.40;99.90
39865;DHT22;25538;48.392;9.976;2023-01-31T02:56:27;0.40;99.90
39865;DHT22;25538;48.392;9.976;2023-01-31T02:59:01;0.40;99.90
39865;DHT22;25538;48.392;9.976;2023-01-31T03:01:37;0.40;99.90
39865;DHT22;25538;48.392;9.976;2023-01-31T03:04:05;0.40;99.90
39865;DHT22;25538;48.392;9.976;2023-01-31T03:18:07;0.30;99.90
39865;DHT22;25538;48.392;9.976;2023-01-31T03:23:12;0.40;99.90
39865;DHT22;25538;48.392;9.976;2023-01-31T03:25:39;0.30;99.90
39865;DHT22;25538;48.392;9.976;2023-01-31T03:28:10;0.30;99.90
39865;DHT22;25538;48.392;9.976;2023-01-31T03:30:51;0.30;99.90
39865;DHT22;25538;48.392;9.976;2023-01-31T03:33:32;0.30;99.90
39865;DHT22;25538;48.392;9.976;2023-01-31T03:36:32;0.30;99.90
39865;DHT22;25538;48.392;9.976;2023-01-31T03:41:55;0.40;99.90
39865;DHT22;25538;48.392;9.976;2023-01-31T03:47:02;0.40;99.90
39865;DHT22;25538;48.392;9.976;2023-01-31T03:49:29;0.40;99.90
39865;DHT22;25538;48.392;9.976;2023-01-31T03:52:07;0.40;99.90
39865;DHT22;25538;48.392;9.976;2023-01-31T03:54:40;0.40;99.90
39865;DHT22;25538;48.392;9.976;2023-01-31T03:57:24;0.40;99.90
39865;DHT22;25538;48.392;9.976;2023-01-31T03:59:54;0.40;99.90
39865;DHT22;25538;48.392;9.976;2023-01-31T04:02:27;0.30;99.90
39865;DHT22;25538;48.392;9.976;2023-01-31T04:04:58;0.30;99.90
39865;DHT22;25538;48.392;9.976;2023-01-31T04:07:25;0.30;99.90
39865;DHT22;25538;48.392;9.976;2023-01-31T04:09:51;0.40;99.90
39865;DHT22;25538;48.392;9.976;2023-01-31T04:12:17;0.40;99.90
39865;DHT22;25538;48.392;9.976;2023-01-31T04:14:43;0.40;99.90
39865;DHT22;25538;48.392;9.976;2023-01-31T04:17:09;0.50;99.90
39865;DHT22;25538;48.392;9.976;2023-01-31T04:19:35;0.50;99.90
39865;DHT22;25538;48.392;9.976;2023-01-31T04:22:00;0.60;99.90
39865;DHT22;25538;48.392;9.976;2023-01-31T04:24:26;0.60;99.90
39865;DHT22;25538;48.392;9.976;2023-01-31T04:26:52;0.60;99.90
39865;DHT22;25538;48.392;9.976;2023-01-31T04:29:18;0.70;99.90
39865;DHT22;25538;48.392;9.976;2023-01-31T04:31:44;0.70;99.90
39865;DHT22;25538;48.392;9.976;2023-01-31T04:34:11;0.70;99.90
39865;DHT22;25538;48.392;9.976;2023-01-31T04:36:37;0.70;99.90
39865;DHT22;25538;48.392;9.976;2023-01-31T04:39:03;0.70;99.90
39865;DHT22;25538;48.392;9.976;2023-01-31T04:41:29;0.70;99.90
39865;DHT22;25538;48.392;9.976;2023-01-31T04:43:55;0.70;99.90
39865;DHT22;25538;48.392;9.976;2023-01-31T04:46:21;0.60;99.90
39865;DHT22;25538;48.392;9.976;2023-01-31T04:48:47;0.60;99.90
39865;DHT22;25538;48.392;9.976;2023-01-31T04:51:12;0.60;99.90
39865;DHT22;25538;48.392;9.976;2023-01-31T04:53:38;0.50;99.90
39865;DHT22;25538;48.392;9.976;2023-01-31T04:56:04;0.50;99.90
39865;DHT22;25538;48.392;9.976;2023-01-31T04:58:30;0.50;99.90
39865;DHT22;25538;48.392;9.976;2023-01-31T05:00:56;0.50;99.90
39865;DHT22;25538;48.392;9.976;2023-01-31T05:03:22;0.50;99.90
39865;DHT22;25538;48.392;9.976;2023-01-31T05:05:49;0.50;99.90
39865;DHT22;25538;48.392;9.976;2023-01-31T05:08:15;0.50;99.90
39865;DHT22;25538;48.392;9.976;2023-01-31T05:10:42;0.50;99.90
39865;DHT22;25538;48.392;9.976;2023-01-31T05:13:08;0.50;99.90
39865;DHT22;25538;48.392;9.976;2023-01-31T05:15:34;0.50;99.90
39865;DHT22;25538;48.392;9.976;2023-01-31T05:18:00;0.40;99.90
39865;DHT22;25538;48.392;9.976;2023-01-31T05:20:35;0.40;99.90
39865;DHT22;25538;48.392;9.976;2023-01-31T05:23:03;0.40;99.90
39865;DHT22;25538;48.392;9.976;2023-01-31T05:25:29;0.40;99.90
39865;DHT22;25538;48.392;9.976;2023-01-31T05:27:55;0.40;99.90
39865;DHT22;25538;48.392;9.976;2023-01-31T05:30:21;0.40;99.90
39865;DHT22;25538;48.392;9.976;2023-01-31T05:32:49;0.40;99.90
39865;DHT22;25538;48.392;9.976;2023-01-31T05:35:16;0.40;99.90
39865;DHT22;25538;48.392;9.976;2023-01-31T05:37:42;0.30;99.90
39865;DHT22;25538;48.392;9.976;2023-01-31T05:40:10;0.30;99.90
39865;DHT22;25538;48.392;9.976;2023-01-31T05:42:36;0.20;99.90
39865;DHT22;25538;48.392;9.976;2023-01-31T05:45:02;0.20;99.90
39865;DHT22;25538;48.392;9.976;2023-01-31T05:47:28;0.10;99.90
39865;DHT22;25538;48.392;9.976;2023-01-31T05:49:54;0.10;99.90
39865;DHT22;25538;48.392;9.976;2023-01-31T05:52:20;0.00;99.90
39865;DHT22;25538;48.392;9.976;2023-01-31T05:54:46;0.00;99.90
39865;DHT22;25538;48.392;9.976;2023-01-31T05:57:11;0.00;99.90
39865;DHT22;25538;48.392;9.976;2023-01-31T05:59:40;0.00;99.90
39865;DHT22;25538;48.392;9.976;2023-01-31T06:02:06;0.00;99.90
39865;DHT22;25538;48.392;9.976;2023-01-31T06:04:34;-0.10;99.90
39865;DHT22;25538;48.392;9.976;2023-01-31T06:06:59;-0.10;99.90
39865;DHT22;25538;48.392;9.976;2023-01-31T06:09:25;-0.10;99.90
39865;DHT22;25538;48.392;9.976;2023-01-31T06:11:51;-0.10;99.90
39865;DHT22;25538;48.392;9.976;2023-01-31T06:14:17;0.00;99.90
39865;DHT22;25538;48.392;9.976;2023-01-31T06:16:43;0.00;99.90
39865;DHT22;25538;48.392;9.976;2023-01-31T06:19:09;0.10;99.90
39865;DHT22;25538;48.392;9.976;2023-01-31T06:21:35;0.10;99.90
39865;DHT22;25538;48.392;9.976;2023-01-31T06:24:01;0.20;99.90
39865;DHT22;25538;48.392;9.976;2023-01-31T06:26:27;0.20;99.90
39865;DHT22;25538;48.392;9.976;2023-01-31T06:28:53;0.20;99.90
39865;DHT22;25538;48.392;9.976;2023-01-31T06:31:20;0.20;99.90
39865;DHT22;25538;48.392;9.976;2023-01-31T06:33:46;0.30;99.90
39865;DHT22;25538;48.392;9.976;2023-01-31T06:36:12;0.20;99.90
39865;DHT22;25538;48.392;9.976;2023-01-31T06:38:39;0.20;99.90
39865;DHT22;25538;48.392;9.976;2023-01-31T06:41:04;0.30;99.90
39865;DHT22;25538;48.392;9.976;2023-01-31T06:43:30;0.30;99.90
39865;DHT22;25538;48.392;9.976;2023-01-31T06:45:56;0.40;99.90
39865;DHT22;25538;48.392;9.976;2023-01-31T06:48:22;0.40;99.90
39865;DHT22;25538;48.392;9.976;2023-01-31T06:50:48;0.40;99.90
39865;DHT22;25538;48.392;9.976;2023-01-31T06:53:14;0.50;99.90
39865;DHT22;25538;48.392;9.976;2023-01-31T06:55:40;0.50;99.90
39865;DHT22;25538;48.392;9.976;2023-01-31T06:58:06;0.40;99.90
39865;DHT22;25538;48.392;9.976;2023-01-31T07:00:32;0.50;99.90
39865;DHT22;25538;48.392;9.976;2023-01-31T07:02:58;0.60;99.90
39865;DHT22;25538;48.392;9.976;2023-01-31T07:05:24;0.60;99.90
39865;DHT22;25538;48.392;9.976;2023-01-31T07:07:49;0.60;99.90
39865;DHT22;25538;48.392;9.976;2023-01-31T07:10:16;0.60;99.90
39865;DHT22;25538;48.392;9.976;2023-01-31T07:12:42;0.60;99.90
39865;DHT22;25538;48.392;9.976;2023-01-31T07:15:09;0.60;99.90
39865;DHT22;25538;48.392;9.976;2023-01-31T07:17:35;0.60;99.90
39865;DHT22;25538;48.392;9.976;2023-01-31T07:20:02;0.60;99.90
39865;DHT22;25538;48.392;9.976;2023-01-31T07:22:28;0.60;99.90
39865;DHT22;25538;48.392;9.976;2023-01-31T07:24:53;0.60;99.90
39865;DHT22;25538;48.392;9.976;2023-01-31T07:27:19;0.60;99.90
39865;DHT22;25538;48.392;9.976;2023-01-31T07:29:45;0.60;99.90
39865;DHT22;25538;48.392;9.976;2023-01-31T07:32:11;0.60;99.90
39865;DHT22;25538;48.392;9.976;2023-01-31T07:34:37;0.60;99.90
39865;DHT22;25538;48.392;9.976;2023-01-31T07:37:03;0.60;99.90
39865;DHT22;25538;48.392;9.976;2023-01-31T07:39:29;0.60;99.90
39865;DHT22;25538;48.392;9.976;2023-01-31T07:41:55;0.60;99.90
39865;DHT22;25538;48.392;9.976;2023-01-31T07:44:21;0.50;99.90
39865;DHT22;25538;48.392;9.976;2023-01-31T07:46:46;0.50;99.90
39865;DHT22;25538;48.392;9.976;2023-01-31T07:49:13;0.50;99.90
39865;DHT22;25538;48.392;9.976;2023-01-31T07:51:39;0.40;99.90
39865;DHT22;25538;48.392;9.976;2023-01-31T07:54:05;0.40;99.90
39865;DHT22;25538;48.392;9.976;2023-01-31T07:56:32;0.40;99.90
39865;DHT22;25538;48.392;9.976;2023-01-31T07:58:58;0.40;99.90
39865;DHT22;25538;48.392;9.976;2023-01-31T08:01:26;0.40;99.90
39865;DHT22;25538;48.392;9.976;2023-01-31T08:04:13;0.40;99.90
39865;DHT22;25538;48.392;9.976;2023-01-31T08:06:41;0.50;99.90
39865;DHT22;25538;48.392;9.976;2023-01-31T08:09:08;0.50;99.90
39865;DHT22;25538;48.392;9.976;2023-01-31T08:11:34;0.60;99.90
39865;DHT22;25538;48.392;9.976;2023-01-31T08:13:59;0.60;99.90
39865;DHT22;25538;48.392;9.976;2023-01-31T08:16:26;0.70;99.90
39865;DHT22;25538;48.392;9.976;2023-01-31T08:18:52;0.70;99.90
39865;DHT22;25538;48.392;9.976;2023-01-31T08:21:18;0.80;99.90
39865;DHT22;25538;48.392;9.976;2023-01-31T08:23:45;0.80;99.90
39865;DHT22;25538;48.392;9.976;2023-01-31T08:26:17;0.90;99.90
39865;DHT22;25538;48.392;9.976;2023-01-31T08:28:44;1.00;99.90
39865;DHT22;25538;48.392;9.976;2023-01-31T08:31:16;1.00;99.90
39865;DHT22;25538;48.392;9.976;2023-01-31T08:33:42;1.10;99.90
39865;DHT22;25538;48.392;9.976;2023-01-31T08:36:19;1.20;99.90
39865;DHT22;25538;48.392;9.976;2023-01-31T08:38:46;1.30;99.90
39865;DHT22;25538;48.392;9.976;2023-01-31T08:41:12;1.40;99.90
39865;DHT22;25538;48.392;9.976;2023-01-31T08:43:39;1.80;99.90
39865;DHT22;25538;48.392;9.976;2023-01-31T08:46:05;2.60;99.90
39865;DHT22;25538;48.392;9.976;2023-01-31T08:48:32;3.50;99.90
39865;DHT22;25538;48.392;9.976;2023-01-31T08:51:07;4.10;99.90
39865;DHT22;25538;48.392;9.976;2023-01-31T08:53:33;4.40;99.90
39865;DHT22;25538;48.392;9.976;2023-01-31T08:56:03;4.60;99.90
39865;DHT22;25538;48.392;9.976;2023-01-31T08:58:33;4.70;99.90
39865;DHT22;25538;48.392;9.976;2023-01-31T09:01:01;4.80;99.90
39865;DHT22;25538;48.392;9.976;2023-01-31T09:03:27;4.60;99.90
39865;DHT22;25538;48.392;9.976;2023-01-31T09:05:53;4.90;99.90
39865;DHT22;25538;48.392;9.976;2023-01-31T09:08:19;5.30;99.90
39865;DHT22;25538;48.392;9.976;2023-01-31T09:10:52;5.80;99.90
39865;DHT22;25538;48.392;9.976;2023-01-31T09:13:18;6.50;99.90
39865;DHT22;25538;48.392;9.976;2023-01-31T09:15:43;6.60;99.90
39865;DHT22;25538;48.392;9.976;2023-01-31T09:18:09;6.80;99.90
39865;DHT22;25538;48.392;9.976;2023-01-31T09:20:35;7.20;99.90
39865;DHT22;25538;48.392;9.976;2023-01-31T09:23:01;7.70;99.90
39865;DHT22;25538;48.392;9.976;2023-01-31T09:25:27;8.10;99.90
39865;DHT22;25538;48.392;9.976;2023-01-31T09:27:54;8.10;99.90
39865;DHT22;25538;48.392;9.976;2023-01-31T09:30:20;7.40;99.90
39865;DHT22;25538;48.392;9.976;2023-01-31T09:32:46;6.40;99.90
39865;DHT22;25538;48.392;9.976;2023-01-31T09:35:14;5.90;99.90
39865;DHT22;25538;48.392;9.976;2023-01-31T09:37:41;5.70;99.90
39865;DHT22;25538;48.392;9.976;2023-01-31T09:40:08;5.40;99.90
39865;DHT22;25538;48.392;9.976;2023-01-31T09:42:42;5.10;99.90
39865;DHT22;25538;48.392;9.976;2023-01-31T09:45:14;5.00;99.90
39865;DHT22;25538;48.392;9.976;2023-01-31T09:47:49;4.80;99.90
39865;DHT22;25538;48.392;9.976;2023-01-31T09:52:45;4.80;99.90
39865;DHT22;25538;48.392;9.976;2023-01-31T09:55:19;4.70;99.90
39865;DHT22;25538;48.392;9.976;2023-01-31T09:58:01;4.80;99.90
39865;DHT22;25538;48.392;9.976;2023-01-31T10:00:49;5.10;99.90
39865;DHT22;25538;48.392;9.976;2023-01-31T10:03:20;5.70;99.90
39865;DHT22;25538;48.392;9.976;2023-01-31T10:05:53;6.70;99.90
39865;DHT22;25538;48.392;9.976;2023-01-31T10:11:00;7.70;99.90
39865;DHT22;25538;48.392;9.976;2023-01-31T10:13:33;7.50;99.90
39865;DHT22;25538;48.392;9.976;2023-01-31T10:16:16;7.50;99.90
39865;DHT22;25538;48.392;9.976;2023-01-31T10:18:48;7.20;99.90
39865;DHT22;25538;48.392;9.976;2023-01-31T10:21:19;6.80;99.90
39865;DHT22;25538;48.392;9.976;2023-01-31T10:24:01;6.60;99.90
39865;DHT22;25538;48.392;9.976;2023-01-31T10:26:31;6.40;99.90
39865;DHT22;25538;48.392;9.976;2023-01-31T10:29:00;6.20;99.90
39865;DHT22;25538;48.392;9.976;2023-01-31T10:39:20;5.50;99.90
39865;DHT22;25538;48.392;9.976;2023-01-31T10:42:01;5.20;99.90
39865;DHT22;25538;48.392;9.976;2023-01-31T10:47:14;5.00;99.90
39865;DHT22;25538;48.392;9.976;2023-01-31T10:49:44;4.90;99.90
39865;DHT22;25538;48.392;9.976;2023-01-31T10:58:16;4.60;99.90
39865;DHT22;25538;48.392;9.976;2023-01-31T11:00:43;4.60;99.90
39865;DHT22;25538;48.392;9.976;2023-01-31T11:03:11;4.50;99.90
39865;DHT22;25538;48.392;9.976;2023-01-31T11:05:50;4.50;99.90
39865;DHT22;25538;48.392;9.976;2023-01-31T11:10:53;4.50;99.90
39865;DHT22;25538;48.392;9.976;2023-01-31T11:13:19;4.30;99.90
39865;DHT22;25538;48.392;9.976;2023-01-31T11:15:46;4.30;99.90
39865;DHT22;25538;48.392;9.976;2023-01-31T11:18:16;4.30;99.90
39865;DHT22;25538;48.392;9.976;2023-01-31T11:20:49;4.20;99.90
39865;DHT22;25538;48.392;9.976;2023-01-31T11:23:23;4.30;99.90
39865;DHT22;25538;48.392;9.976;2023-01-31T11:25:50;4.40;99.90
39865;DHT22;25538;48.392;9.976;2023-01-31T11:28:32;4.50;99.90
39865;DHT22;25538;48.392;9.976;2023-01-31T11:30:59;4.50;99.90
39865;DHT22;25538;48.392;9.976;2023-01-31T11:33:42;4.60;99.90
39865;DHT22;25538;48.392;9.976;2023-01-31T11:36:16;4.70;99.90
39865;DHT22;25538;48.392;9.976;2023-01-31T11:38:48;4.90;99.90
39865;DHT22;25538;48.392;9.976;2023-01-31T11:41:27;5.30;99.90
39865;DHT22;25538;48.392;9.976;2023-01-31T11:46:51;10.20;99.90
39865;DHT22;25538;48.392;9.976;2023-01-31T11:49:39;11.60;99.90
39865;DHT22;25538;48.392;9.976;2023-01-31T11:52:26;12.50;96.20
39865;DHT22;25538;48.392;9.976;2023-01-31T11:54:55;12.60;92.20
39865;DHT22;25538;48.392;9.976;2023-01-31T11:57:34;12.20;91.70
39865;DHT22;25538;48.392;9.976;2023-01-31T12:00:07;12.90;91.20
39865;DHT22;25538;48.392;9.976;2023-01-31T12:02:42;13.40;88.90
39865;DHT22;25538;48.392;9.976;2023-01-31T12:05:14;13.70;83.80
39865;DHT22;25538;48.392;9.976;2023-01-31T12:13:02;14.50;75.00
39865;DHT22;25538;48.392;9.976;2023-01-31T12:15:30;14.30;77.00
39865;DHT22;25538;48.392;9.976;2023-01-31T12:17:57;14.50;74.10
39865;DHT22;25538;48.392;9.976;2023-01-31T12:20:43;14.90;73.10
39865;DHT22;25538;48.392;9.976;2023-01-31T12:23:33;14.60;72.00
39865;DHT22;25538;48.392;9.976;2023-01-31T12:26:10;13.60;73.80
39865;DHT22;25538;48.392;9.976;2023-01-31T12:29:12;12.20;77.10
39865;DHT22;25538;48.392;9.976;2023-01-31T12:35:06;9.50;87.00
39865;DHT22;25538;48.392;9.976;2023-01-31T12:40:44;7.90;93.00
39865;DHT22;25538;48.392;9.976;2023-01-31T12:51:45;6.70;98.30
39865;DHT22;25538;48.392;9.976;2023-01-31T12:57:23;6.20;99.90
39865;DHT22;25538;48.392;9.976;2023-01-31T13:00:20;5.90;99.90
39865;DHT22;25538;48.392;9.976;2023-01-31T13:06:31;5.30;99.90
39865;DHT22;25538;48.392;9.976;2023-01-31T13:08:49;5.40;99.90
39865;DHT22;25538;48.392;9.976;2023-01-31T13:11:19;5.30;99.90
39865;DHT22;25538;48.392;9.976;2023-01-31T13:13:56;5.20;99.90
39865;DHT22;25538;48.392;9.976;2023-01-31T13:16:40;5.00;99.90
39865;DHT22;25538;48.392;9.976;2023-01-31T13:19:24;4.90;99.90
39865;DHT22;25538;48.392;9.976;2023-01-31T13:21:54;4.90;99.90
39865;DHT22;25538;48.392;9.976;2023-01-31T13:24:26;5.00;99.90
39865;DHT22;25538;48.392;9.976;2023-01-31T13:27:07;5.10;99.90
39865;DHT22;25538;48.392;9.976;2023-01-31T13:29:46;5.10;99.90
39865;DHT22;25538;48.392;9.976;2023-01-31T13:32:43;5.10;99.90
39865;DHT22;25538;48.392;9.976;2023-01-31T13:35:33;5.00;99.90
39865;DHT22;25538;48.392;9.976;2023-01-31T13:38:02;4.80;99.90
39865;DHT22;25538;48.392;9.976;2023-01-31T13:40:35;4.60;99.90
39865;DHT22;25538;48.392;9.976;2023-01-31T13:43:12;4.40;99.90
39865;DHT22;25538;48.392;9.976;2023-01-31T13:46:04;4.40;99.90
39865;DHT22;25538;48.392;9.976;2023-01-31T13:48:34;4.40;99.90
39865;DHT22;25538;48.392;9.976;2023-01-31T13:51:09;4.40;99.90
39865;DHT22;25538;48.392;9.976;2023-01-31T13:54:15;4.50;99.90
39865;DHT22;25538;48.392;9.976;2023-01-31T13:56:49;4.40;99.90
39865;DHT22;25538;48.392;9.976;2023-01-31T13:59:21;4.30;99.90
39865;DHT22;25538;48.392;9.976;2023-01-31T14:01:49;4.30;99.90
39865;DHT22;25538;48.392;9.976;2023-01-31T14:09:37;4.40;99.90
39865;DHT22;25538;48.392;9.976;2023-01-31T14:14:46;4.40;99.90
39865;DHT22;25538;48.392;9.976;2023-01-31T14:27:19;4.30;99.90
39865;DHT22;25538;48.392;9.976;2023-01-31T14:29:48;4.30;99.90
39865;DHT22;25538;48.392;9.976;2023-01-31T14:32:29;4.30;99.90
39865;DHT22;25538;48.392;9.976;2023-01-31T14:34:56;4.30;99.90
39865;DHT22;25538;48.392;9.976;2023-01-31T14:40:58;4.50;99.90
39865;DHT22;25538;48.392;9.976;2023-01-31T14:43:53;4.40;99.90
39865;DHT22;25538;48.392;9.976;2023-01-31T14:52:26;4.40;99.90
39865;DHT22;25538;48.392;9.976;2023-01-31T14:57:26;4.40;99.90
39865;DHT22;25538;48.392;9.976;2023-01-31T15:07:25;4.60;99.90
39865;DHT22;25538;48.392;9.976;2023-01-31T15:09:51;4.50;99.90
39865;DHT22;25538;48.392;9.976;2023-01-31T15:15:37;4.70;99.90
39865;DHT22;25538;48.392;9.976;2023-01-31T15:18:12;4.60;99.90
39865;DHT22;25538;48.392;9.976;2023-01-31T15:20:42;4.60;99.90
39865;DHT22;25538;48.392;9.976;2023-01-31T15:23:25;4.60;99.90
39865;DHT22;25538;48.392;9.976;2023-01-31T15:25:54;4.60;99.90
39865;DHT22;25538;48.392;9.976;2023-01-31T15:28:25;4.60;99.90
39865;DHT22;25538;48.392;9.976;2023-01-31T15:30:56;4.60;99.90
39865;DHT22;25538;48.392;9.976;2023-01-31T15:33:31;4.60;99.90
39865;DHT22;25538;48.392;9.976;2023-01-31T15:36:18;4.50;99.90
39865;DHT22;25538;48.392;9.976;2023-01-31T15:39:21;4.50;99.90
39865;DHT22;25538;48.392;9.976;2023-01-31T15:41:45;4.40;99.90
39865;DHT22;25538;48.392;9.976;2023-01-31T15:44:22;4.40;99.90
39865;DHT22;25538;48.392;9.976;2023-01-31T15:46:53;4.30;99.90
39865;DHT22;25538;48.392;9.976;2023-01-31T15:49:27;4.30;99.90
39865;DHT22;25538;48.392;9.976;2023-01-31T15:52:19;4.30;99.90
39865;DHT22;25538;48.392;9.976;2023-01-31T15:54:56;4.20;99.90
39865;DHT22;25538;48.392;9.976;2023-01-31T15:57:30;4.30;99.90
39865;DHT22;25538;48.392;9.976;2023-01-31T16:00:00;4.20;99.90
39865;DHT22;25538;48.392;9.976;2023-01-31T16:02:28;4.10;99.90
39865;DHT22;25538;48.392;9.976;2023-01-31T16:04:56;4.10;99.90
39865;DHT22;25538;48.392;9.976;2023-01-31T16:07:24;4.10;99.90
39865;DHT22;25538;48.392;9.976;2023-01-31T16:09:55;4.10;99.90
39865;DHT22;25538;48.392;9.976;2023-01-31T16:12:22;4.00;99.90
39865;DHT22;25538;48.392;9.976;2023-01-31T16:14:49;4.00;99.90
39865;DHT22;25538;48.392;9.976;2023-01-31T16:17:16;4.00;99.90
39865;DHT22;25538;48.392;9.976;2023-01-31T16:19:48;3.90;99.90
39865;DHT22;25538;48.392;9.976;2023-01-31T16:22:30;3.90;99.90
39865;DHT22;25538;48.392;9.976;2023-01-31T16:24:59;4.00;99.90
39865;DHT22;25538;48.392;9.976;2023-01-31T16:27:28;3.90;99.90
39865;DHT22;25538;48.392;9.976;2023-01-31T16:29:56;3.90;99.90
39865;DHT22;25538;48.392;9.976;2023-01-31T16:32:33;3.90;99.90
39865;DHT22;25538;48.392;9.976;2023-01-31T16:35:04;3.90;99.90
39865;DHT22;25538;48.392;9.976;2023-01-31T16:38:06;3.90;99.90
39865;DHT22;25538;48.392;9.976;2023-01-31T16:40:58;3.90;99.90
39865;DHT22;25538;48.392;9.976;2023-01-31T16:43:29;3.90;99.90
39865;DHT22;25538;48.392;9.976;2023-01-31T16:45:57;3.90;99.90
39865;DHT22;25538;48.392;9.976;2023-01-31T16:50:53;3.90;99.90
39865;DHT22;25538;48.392;9.976;2023-01-31T16:58:47;3.80;99.90
39865;DHT22;25538;48.392;9.976;2023-01-31T17:01:16;3.80;99.90
39865;DHT22;25538;48.392;9.976;2023-01-31T17:03:45;3.80;99.90
39865;DHT22;25538;48.392;9.976;2023-01-31T17:06:21;3.80;99.90
39865;DHT22;25538;48.392;9.976;2023-01-31T17:08:47;3.80;99.90
39865;DHT22;25538;48.392;9.976;2023-01-31T17:11:16;3.80;99.90
39865;DHT22;25538;48.392;9.976;2023-01-31T17:13:42;3.80;99.90
39865;DHT22;25538;48.392;9.976;2023-01-31T17:16:17;3.80;99.90
39865;DHT22;25538;48.392;9.976;2023-01-31T17:18:50;3.80;99.90
39865;DHT22;25538;48.392;9.976;2023-01-31T17:21:16;3.80;99.90
39865;DHT22;25538;48.392;9.976;2023-01-31T17:23:42;3.80;99.90
39865;DHT22;25538;48.392;9.976;2023-01-31T17:26:20;3.80;99.90
39865;DHT22;25538;48.392;9.976;2023-01-31T17:28:47;3.70;99.90
39865;DHT22;25538;48.392;9.976;2023-01-31T17:31:18;3.70;99.90
39865;DHT22;25538;48.392;9.976;2023-01-31T17:33:49;3.70;99.90
39865;DHT22;25538;48.392;9.976;2023-01-31T17:36:15;3.70;99.90
39865;DHT22;25538;48.392;9.976;2023-01-31T17:38:42;3.70;99.90
39865;DHT22;25538;48.392;9.976;2023-01-31T17:41:14;3.60;99.90
39865;DHT22;25538;48.392;9.976;2023-01-31T17:43:40;3.60;99.90
39865;DHT22;25538;48.392;9.976;2023-01-31T17:46:06;3.50;99.90
39865;DHT22;25538;48.392;9.976;2023-01-31T17:48:33;3.60;99.90
39865;DHT22;25538;48.392;9.976;2023-01-31T17:50:58;3.60;99.90
39865;DHT22;25538;48.392;9.976;2023-01-31T17:53:24;3.60;99.90
39865;DHT22;25538;48.392;9.976;2023-01-31T17:55:50;3.60;99.90
39865;DHT22;25538;48.392;9.976;2023-01-31T17:58:16;3.50;99.90
39865;DHT22;25538;48.392;9.976;2023-01-31T18:00:43;3.50;99.90
39865;DHT22;25538;48.392;9.976;2023-01-31T18:03:15;3.50;99.90
39865;DHT22;25538;48.392;9.976;2023-01-31T18:05:42;3.50;99.90
39865;DHT22;25538;48.392;9.976;2023-01-31T18:08:08;3.50;99.90
39865;DHT22;25538;48.392;9.976;2023-01-31T18:10:34;3.40;99.90
39865;DHT22;25538;48.392;9.976;2023-01-31T18:13:00;3.40;99.90
39865;DHT22;25538;48.392;9.976;2023-01-31T18:15:26;3.40;99.90
39865;DHT22;25538;48.392;9.976;2023-01-31T18:17:52;3.40;99.90
